Time;durP1;ratioP1;P1;durP2;ratioP2;P2;SDS_P1;SDS_P2;PMS_P1;PMS_P2;Temp;Humidity;BMP_temperature;BMP_pressure;BME280_temperature;BME280_humidity;BME280_pressure;Samples;Min_cycle;Max_cycle;Signal;HPM_P1;HPM_P2
2021/03/05 00:00:25;;;;;;;13.73;12.20;;;;;;;8.13;66.48;100728.72;5092328;28;20466;-69
2021/03/05 00:02:52;;;;;;;14.80;11.82;;;;;;;8.18;66.98;100733.25;5075610;28;20089;-69
2021/03/05 00:05:18;;;;;;;17.20;12.80;;;;;;;8.21;66.19;100724.28;5092282;28;20036;-69
2021/03/05 00:07:43;;;;;;;16.15;13.40;;;;;;;8.29;64.85;100718.69;5092325;28;20030;-69
2021/03/05 00:10:12;;;;;;;16.73;12.88;;;;;;;8.29;66.03;100721.44;5092505;28;20114;-69
2021/03/05 00:12:38;;;;;;;16.35;14.27;;;;;;;8.22;65.98;100717.59;5092187;28;20032;-69
2021/03/05 00:15:06;;;;;;;18.38;15.48;;;;;;;8.24;66.45;100720.84;5092188;28;20032;-69
2021/03/05 00:17:31;;;;;;;15.48;12.85;;;;;;;8.27;66.41;100720.19;5092108;28;20016;-69
2021/03/05 00:19:57;;;;;;;19.25;14.38;;;;;;;8.40;65.52;100716.38;5091972;28;20139;-70
2021/03/05 00:22:26;;;;;;;17.67;12.48;;;;;;;8.39;66.01;100718.34;5092159;28;20074;-69
2021/03/05 00:24:52;;;;;;;20.02;13.63;;;;;;;8.31;66.76;100715.56;5092315;28;20109;-69
2021/03/05 00:27:18;;;;;;;14.80;13.10;;;;;;;8.33;67.11;100725.19;5076027;28;20474;-69
2021/03/05 00:29:43;;;;;;;16.77;13.70;;;;;;;8.26;66.95;100708.28;5095338;28;20400;-69
2021/03/05 00:32:09;;;;;;;14.05;12.63;;;;;;;8.12;66.71;100691.06;5095841;28;20062;-69
2021/03/05 00:34:35;;;;;;;14.10;12.60;;;;;;;8.11;67.03;100704.09;5095770;28;20024;-69
2021/03/05 00:37:02;;;;;;;17.08;12.65;;;;;;;8.14;67.68;100710.94;5095808;28;20024;-69
2021/03/05 00:39:28;;;;;;;18.23;13.55;;;;;;;8.10;66.78;100704.44;5095662;28;20077;-69
2021/03/05 00:41:53;;;;;;;15.18;12.57;;;;;;;8.18;65.71;100700.81;5095750;28;20035;-70
2021/03/05 00:44:20;;;;;;;12.10;10.85;;;;;;;8.08;66.79;100701.19;5095524;28;20102;-69
2021/03/05 00:46:46;;;;;;;15.00;11.27;;;;;;;8.12;66.45;100691.88;5095523;28;20026;-70
2021/03/05 00:49:11;;;;;;;17.08;12.10;;;;;;;8.08;67.40;100695.63;5095469;28;20028;-70
2021/03/05 00:51:37;;;;;;;15.65;12.35;;;;;;;8.04;67.40;100694.66;5095403;28;20032;-69
2021/03/05 00:54:03;;;;;;;14.07;11.57;;;;;;;8.05;66.91;100685.25;5095656;28;20032;-70
2021/03/05 00:56:29;;;;;;;16.45;11.70;;;;;;;8.04;67.13;100673.34;5095904;28;20085;-69
2021/03/05 00:58:54;;;;;;;12.48;10.38;;;;;;;8.09;66.16;100680.63;5095569;28;20427;-69
2021/03/05 01:01:20;;;;;;;13.10;9.57;;;;;;;7.99;67.37;100681.84;5095527;28;20470;-70
2021/03/05 01:03:45;;;;;;;12.10;10.15;;;;;;;8.00;66.83;100679.88;5095373;28;20035;-69
2021/03/05 01:06:11;;;;;;;12.32;9.73;;;;;;;7.92;67.43;100681.53;5095154;28;20024;-69
2021/03/05 01:08:36;;;;;;;10.63;8.82;;;;;;;7.92;68.12;100675.19;5095134;28;20032;-70
2021/03/05 01:11:03;;;;;;;11.50;9.57;;;;;;;7.88;67.30;100664.78;5095051;28;20078;-69
2021/03/05 01:13:28;;;;;;;13.82;9.63;;;;;;;7.92;67.20;100678.75;5096050;28;20027;-69
2021/03/05 01:15:54;;;;;;;10.93;8.75;;;;;;;7.76;67.85;100669.38;5094944;28;20474;-69
2021/03/05 01:18:19;;;;;;;12.23;8.85;;;;;;;7.78;68.44;100673.47;5095182;28;20024;-69
2021/03/05 01:20:45;;;;;;;12.93;9.38;;;;;;;7.75;68.25;100676.06;5094678;28;20089;-70
2021/03/05 01:23:13;;;;;;;11.23;8.85;;;;;;;7.71;68.08;100655.72;5095336;28;20141;-70
2021/03/05 01:25:39;;;;;;;11.23;8.07;;;;;;;7.80;68.62;100662.03;5094794;28;20028;-69
2021/03/05 01:28:06;;;;;;;11.57;7.97;;;;;;;7.75;68.51;100665.78;5094428;28;20031;-70
2021/03/05 01:30:34;;;;;;;9.60;7.35;;;;;;;7.88;67.76;100658.41;5077633;28;20477;-69
2021/03/05 01:33:00;;;;;;;9.15;7.10;;;;;;;7.76;67.96;100653.56;5094951;28;20024;-69
2021/03/05 01:35:27;;;;;;;13.65;8.32;;;;;;;7.74;68.07;100646.75;5095194;28;20051;-70
2021/03/05 01:37:53;;;;;;;10.43;6.90;;;;;;;7.78;67.37;100653.25;5094577;28;20025;-69
2021/03/05 01:40:32;;;;;;;9.70;7.88;;;;;;;7.72;68.20;100649.81;5094682;28;20043;-70
2021/03/05 01:42:58;;;;;;;8.93;7.32;;;;;;;7.64;68.53;100647.91;5094359;28;20161;-69
2021/03/05 01:45:26;;;;;;;8.20;7.00;;;;;;;7.60;67.50;100639.44;5094993;28;20058;-69
2021/03/05 01:48:00;;;;;;;8.45;6.63;;;;;;;7.65;68.30;100632.91;5094932;28;20016;-70
2021/03/05 01:50:37;;;;;;;8.15;7.28;;;;;;;7.57;68.53;100639.31;5094898;28;20125;-69
2021/03/05 01:53:05;;;;;;;8.45;6.30;;;;;;;7.54;67.63;100643.56;5094271;28;20058;-69
2021/03/05 01:55:31;;;;;;;7.80;7.03;;;;;;;7.58;68.92;100644.53;5094218;28;20020;-69
2021/03/05 01:57:57;;;;;;;9.30;7.45;;;;;;;7.50;68.25;100641.78;5094431;28;20035;-69
2021/03/05 02:00:31;;;;;;;8.80;6.80;;;;;;;7.40;68.93;100625.53;5078137;28;20034;-69
2021/03/05 02:02:57;;;;;;;11.55;6.93;;;;;;;7.48;68.13;100627.47;5094259;28;20025;-71
2021/03/05 02:05:22;;;;;;;7.72;6.72;;;;;;;7.47;68.84;100632.19;5094564;28;20032;-69
2021/03/05 02:07:48;;;;;;;8.65;6.80;;;;;;;7.39;69.56;100627.47;5094242;28;20036;-69
2021/03/05 02:10:13;;;;;;;10.23;7.63;;;;;;;7.45;68.57;100625.34;5094482;28;20359;-69
2021/03/05 02:12:39;;;;;;;9.88;7.88;;;;;;;7.46;68.94;100627.81;5093858;28;20356;-69
2021/03/05 02:15:06;;;;;;;12.75;7.75;;;;;;;7.41;69.69;100627.16;5093798;28;20028;-69
2021/03/05 02:17:53;;;;;;;9.88;8.88;;;;;;;7.45;69.25;100619.81;5093736;28;20025;-69
2021/03/05 02:20:31;;;;;;;10.63;9.18;;;;;;;7.45;69.13;100617.84;5093542;28;20051;-69
2021/03/05 02:23:20;;;;;;;16.60;10.20;;;;;;;7.40;69.28;100619.97;5093602;28;20034;-69
2021/03/05 02:25:55;;;;;;;12.57;9.32;;;;;;;7.43;69.31;100616.56;5093634;28;20119;-69
2021/03/05 02:28:42;;;;;;;11.48;9.63;;;;;;;7.39;69.21;100613.63;5093771;28;20031;-70
2021/03/05 02:31:41;;;;;;;10.65;9.40;;;;;;;7.28;69.48;100615.13;5093727;28;20043;-69
2021/03/05 02:34:13;;;;;;;14.45;10.75;;;;;;;7.24;70.39;100611.41;5093436;28;20021;-69
2021/03/05 02:37:01;;;;;;;14.68;11.55;;;;;;;7.22;69.78;100608.16;5093966;28;20086;-69
2021/03/05 02:39:43;;;;;;;14.85;10.90;;;;;;;7.30;71.19;100610.09;5093659;28;20024;-70
2021/03/05 02:42:15;;;;;;;14.35;11.07;;;;;;;7.29;70.99;100598.19;5093585;28;20470;-69
2021/03/05 02:44:48;;;;;;;16.73;12.27;;;;;;;7.49;69.44;100598.63;5093493;28;20489;-69
2021/03/05 02:47:18;;;;;;;17.73;11.73;;;;;;;7.39;69.76;100602.56;5093259;28;20028;-70
2021/03/05 02:49:46;;;;;;;12.98;11.57;;;;;;;7.27;70.24;100600.50;5093193;28;20028;-69
2021/03/05 02:52:16;;;;;;;18.23;14.52;;;;;;;7.23;71.02;100604.25;5092409;28;20085;-69
2021/03/05 02:54:45;;;;;;;16.52;12.80;;;;;;;7.26;70.66;100600.81;5093108;28;20032;-69
2021/03/05 02:57:15;;;;;;;15.85;13.50;;;;;;;7.42;70.52;100603.88;5093059;28;20035;-69
2021/03/05 02:59:42;;;;;;;16.20;13.25;;;;;;;7.45;70.26;100600.41;5093371;28;20024;-70
2021/03/05 03:02:10;;;;;;;15.15;12.60;;;;;;;7.32;70.72;100596.72;5092999;28;20032;-69
2021/03/05 03:04:37;;;;;;;18.10;13.23;;;;;;;7.35;71.11;100594.13;5093168;28;20036;-69
2021/03/05 03:07:04;;;;;;;14.07;12.70;;;;;;;7.35;70.43;100602.44;5093483;28;20100;-69
2021/03/05 03:09:31;;;;;;;15.95;13.32;;;;;;;7.39;70.76;100594.25;5076205;28;20060;-69
2021/03/05 03:11:58;;;;;;;14.27;12.25;;;;;;;7.33;71.19;100587.28;5093413;28;20032;-69
2021/03/05 03:14:24;;;;;;;15.52;12.85;;;;;;;7.24;71.33;100590.06;5093107;28;20110;-69
2021/03/05 03:16:50;;;;;;;17.38;14.35;;;;;;;7.28;71.11;100591.03;5092789;28;20062;-70
2021/03/05 03:19:20;;;;;;;19.08;14.27;;;;;;;7.28;71.29;100599.34;5096065;28;20047;-70
2021/03/05 03:21:45;;;;;;;32.42;19.73;;;;;;;7.25;71.29;100591.72;5096112;28;20055;-69
2021/03/05 03:24:11;;;;;;;31.70;20.77;;;;;;;7.29;70.46;100595.41;5096037;28;20059;-69
2021/03/05 03:26:38;;;;;;;25.98;19.42;;;;;;;7.24;71.44;100592.84;5095798;28;20027;-69
2021/03/05 03:29:09;;;;;;;23.55;19.02;;;;;;;7.26;71.14;100584.22;5096294;28;20371;-69
2021/03/05 03:31:39;;;;;;;30.83;26.83;;;;;;;7.23;71.29;100593.16;5096554;28;20355;-69
2021/03/05 03:34:06;;;;;;;40.35;31.75;;;;;;;7.21;70.85;100590.75;5096278;28;20054;-69
2021/03/05 03:36:39;;;;;;;46.65;36.00;;;;;;;7.21;70.73;100585.22;5079630;28;20034;-69
2021/03/05 03:39:09;;;;;;;44.63;33.17;;;;;;;7.18;71.47;100580.31;5114453;28;20084;-69
2021/03/05 03:41:36;;;;;;;63.10;47.22;;;;;;;7.20;70.61;100582.78;5095851;28;20126;-69
2021/03/05 03:44:07;;;;;;;45.13;32.20;;;;;;;7.15;70.62;100588.50;5096062;28;20032;-69
2021/03/05 03:46:36;;;;;;;29.88;23.70;;;;;;;7.10;71.08;100581.19;5096425;28;20354;-69
2021/03/05 03:49:06;;;;;;;26.13;21.55;;;;;;;7.11;71.46;100577.25;5096156;28;20032;-70
2021/03/05 03:51:36;;;;;;;37.65;29.83;;;;;;;7.15;71.11;100586.53;5095814;28;20084;-69
2021/03/05 03:54:03;;;;;;;25.15;22.02;;;;;;;7.08;71.46;100572.38;5079183;28;20063;-70
2021/03/05 03:56:32;;;;;;;25.77;21.75;;;;;;;7.07;70.96;100577.09;5096020;28;20084;-69
2021/03/05 03:59:04;;;;;;;38.17;30.15;;;;;;;7.04;71.22;100574.19;5096259;28;20032;-71
2021/03/05 04:01:31;;;;;;;25.00;18.40;;;;;;;7.03;70.67;100570.63;5095652;28;20488;-70
2021/03/05 04:04:00;;;;;;;22.98;18.10;;;;;;;7.02;71.71;100570.94;5117242;28;20031;-70
2021/03/05 04:06:27;;;;;;;29.42;20.63;;;;;;;7.02;71.22;100559.88;5099671;28;20019;-70
2021/03/05 04:08:54;;;;;;;15.10;13.50;;;;;;;7.05;70.82;100564.75;5118275;28;20027;-69
2021/03/05 04:11:21;;;;;;;13.82;11.15;;;;;;;7.08;70.94;100561.31;5099590;28;20020;-69
2021/03/05 04:13:47;;;;;;;12.95;9.15;;;;;;;7.08;71.38;100558.53;5117585;28;20039;-69
2021/03/05 04:16:19;;;;;;;15.02;11.80;;;;;;;7.06;71.70;100566.38;5100128;28;20500;-70
2021/03/05 04:18:44;;;;;;;17.88;12.43;;;;;;;7.04;70.29;100565.91;5113785;28;20478;-69
2021/03/05 04:21:20;;;;;;;22.40;15.80;;;;;;;6.94;71.31;100560.72;5098935;28;20054;-70
2021/03/05 04:23:46;;;;;;;12.02;10.63;;;;;;;7.02;70.83;100565.41;5099546;28;20028;-69
2021/03/05 04:26:12;;;;;;;12.18;10.48;;;;;;;6.96;70.58;100566.72;5099313;28;20044;-69
2021/03/05 04:28:38;;;;;;;17.38;9.30;;;;;;;6.88;71.12;100553.72;5099274;28;20103;-70
2021/03/05 04:31:03;;;;;;;13.32;10.05;;;;;;;6.88;71.78;100564.81;5099225;28;20270;-69
2021/03/05 04:33:29;;;;;;;15.45;11.60;;;;;;;6.86;71.64;100554.03;5099196;28;20028;-70
2021/03/05 04:35:55;;;;;;;12.65;10.23;;;;;;;6.95;70.91;100562.34;5099190;28;20043;-70
2021/03/05 04:38:21;;;;;;;13.98;9.85;;;;;;;6.79;71.50;100565.63;5099397;28;20031;-69
2021/03/05 04:40:46;;;;;;;17.10;9.40;;;;;;;6.85;71.86;100557.97;5099368;28;20080;-69
2021/03/05 04:43:12;;;;;;;15.65;9.52;;;;;;;6.75;72.10;100559.09;5098913;28;20478;-70
2021/03/05 04:45:38;;;;;;;13.93;10.80;;;;;;;6.78;72.75;100557.66;5098948;28;20043;-69
2021/03/05 04:48:04;;;;;;;20.15;13.18;;;;;;;6.87;71.76;100563.16;5098941;28;20031;-69
2021/03/05 04:50:29;;;;;;;28.50;16.17;;;;;;;6.89;72.13;100564.47;5098538;28;20031;-69
2021/03/05 04:52:55;;;;;;;30.05;22.02;;;;;;;6.91;71.75;100566.88;5098851;28;20027;-69
2021/03/05 04:55:20;;;;;;;31.25;19.90;;;;;;;6.90;71.83;100565.28;5099024;28;20118;-69
2021/03/05 04:57:46;;;;;;;28.83;19.50;;;;;;;6.85;72.35;100570.97;5098973;28;20070;-70
2021/03/05 05:00:12;;;;;;;30.20;20.98;;;;;;;6.84;71.64;100561.88;5098789;28;20040;-70
2021/03/05 05:02:38;;;;;;;24.33;17.23;;;;;;;6.88;71.99;100571.13;5098893;28;20034;-70
2021/03/05 05:05:04;;;;;;;17.98;13.80;;;;;;;6.90;71.49;100570.81;5098579;28;20032;-70
2021/03/05 05:07:29;;;;;;;14.70;9.90;;;;;;;6.88;72.21;100576.69;5099068;28;20027;-69
2021/03/05 05:09:57;;;;;;;17.63;9.98;;;;;;;6.85;72.08;100568.22;5099152;28;20115;-69
2021/03/05 05:12:23;;;;;;;8.80;7.45;;;;;;;6.81;72.20;100555.03;5098388;28;20035;-70
2021/03/05 05:14:48;;;;;;;11.10;7.60;;;;;;;6.87;71.68;100564.00;5097590;28;20023;-69
2021/03/05 05:17:13;;;;;;;12.50;7.20;;;;;;;6.84;71.48;100561.88;5098413;28;20032;-69
2021/03/05 05:19:39;;;;;;;10.95;6.97;;;;;;;6.91;70.89;100566.88;5094685;28;20086;-69
2021/03/05 05:22:05;;;;;;;9.55;6.57;;;;;;;6.81;70.93;100559.75;5094884;28;20028;-69
2021/03/05 05:24:30;;;;;;;8.15;7.13;;;;;;;6.83;71.28;100558.28;5095077;28;20028;-69
2021/03/05 05:26:56;;;;;;;9.85;8.68;;;;;;;6.82;72.28;100562.22;5095072;28;20378;-69
2021/03/05 05:29:21;;;;;;;9.73;8.10;;;;;;;6.91;72.14;100559.41;5095306;28;20024;-69
2021/03/05 05:31:47;;;;;;;13.02;8.95;;;;;;;6.90;71.64;100551.44;5095297;28;20450;-69
2021/03/05 05:34:12;;;;;;;12.60;8.77;;;;;;;6.95;71.19;100562.34;5094647;28;20137;-69
2021/03/05 05:36:38;;;;;;;8.68;7.78;;;;;;;6.91;71.18;100562.16;5094627;28;20024;-70
2021/03/05 05:39:04;;;;;;;13.20;8.27;;;;;;;7.01;71.51;100564.59;5094553;28;20039;-70
2021/03/05 05:41:30;;;;;;;13.07;9.40;;;;;;;7.06;71.46;100558.88;5094790;28;20105;-69
2021/03/05 05:43:56;;;;;;;11.20;9.73;;;;;;;7.05;71.40;100557.25;5094688;28;20020;-69
2021/03/05 05:46:22;;;;;;;13.57;10.27;;;;;;;7.17;71.86;100567.63;5094444;28;20423;-70
2021/03/05 05:48:49;;;;;;;10.93;9.82;;;;;;;7.21;71.80;100552.00;5094407;28;20032;-70
2021/03/05 05:51:17;;;;;;;9.63;8.73;;;;;;;7.34;71.14;100545.41;5094599;28;20107;-69
2021/03/05 05:53:47;;;;;;;11.23;9.07;;;;;;;7.39;70.19;100546.38;5094815;28;20408;-69
2021/03/05 05:56:14;;;;;;;15.60;10.00;;;;;;;7.44;70.98;100560.03;5094261;28;20052;-69
2021/03/05 05:58:40;;;;;;;12.00;9.70;;;;;;;7.44;71.24;100560.03;5094766;28;20028;-69
2021/03/05 06:01:07;;;;;;;15.15;9.90;;;;;;;7.51;71.29;100563.09;5094084;28;20036;-69
2021/03/05 06:03:34;;;;;;;13.90;9.90;;;;;;;7.61;70.38;100560.75;5094000;28;20123;-69
2021/03/05 06:06:00;;;;;;;18.20;9.82;;;;;;;7.68;70.24;100554.72;5094391;28;20093;-69
2021/03/05 06:08:28;;;;;;;10.00;8.77;;;;;;;7.73;70.22;100556.50;5094529;28;20412;-69
2021/03/05 06:10:56;;;;;;;12.38;9.90;;;;;;;7.85;70.11;100551.84;5094853;28;20465;-70
2021/03/05 06:13:26;;;;;;;12.70;9.98;;;;;;;8.04;69.97;100568.03;5094155;28;20459;-69
2021/03/05 06:16:13;;;;;;;11.65;8.95;;;;;;;8.19;69.18;100563.03;5095611;28;20112;-70
2021/03/05 06:18:39;;;;;;;11.48;10.23;;;;;;;8.34;68.80;100560.44;5093733;28;20040;-69
2021/03/05 06:21:05;;;;;;;12.88;11.15;;;;;;;8.42;68.44;100561.56;5093326;28;20048;-69
2021/03/05 06:23:31;;;;;;;12.73;10.57;;;;;;;8.56;68.29;100570.41;5093877;28;20486;-70
2021/03/05 06:26:01;;;;;;;19.35;10.95;;;;;;;8.71;67.74;100570.94;5092558;28;20145;-69
2021/03/05 06:28:27;;;;;;;13.02;11.23;;;;;;;8.81;67.49;100562.19;5093578;28;20112;-70
2021/03/05 06:30:53;;;;;;;13.13;9.63;;;;;;;8.93;67.43;100563.03;5093537;28;20111;-70
2021/03/05 06:33:26;;;;;;;11.40;10.20;;;;;;;9.03;67.00;100563.75;5076801;28;20032;-69
2021/03/05 06:35:53;;;;;;;14.10;10.80;;;;;;;9.13;66.90;100568.88;5094047;28;20031;-70
2021/03/05 06:38:45;;;;;;;20.75;14.25;;;;;;;9.30;66.40;100568.66;5093941;28;20031;-70
2021/03/05 06:41:21;;;;;;;20.35;16.20;;;;;;;9.49;65.73;100570.09;5076732;28;20096;-69
2021/03/05 06:43:48;;;;;;;21.33;15.63;;;;;;;9.65;65.25;100568.25;5093843;28;20616;-70
2021/03/05 06:46:26;;;;;;;19.98;15.93;;;;;;;9.47;64.80;100519.63;5093186;28;20043;-69
2021/03/05 06:48:55;;;;;;;14.80;13.13;;;;;;;9.77;64.05;100537.66;5093738;28;20112;-70
2021/03/05 06:51:24;;;;;;;17.42;12.30;;;;;;;10.10;64.18;100567.28;5093193;28;20153;-70
2021/03/05 06:54:01;;;;;;;16.17;12.65;;;;;;;10.32;63.05;100564.00;5093681;28;20378;-69
2021/03/05 06:56:31;;;;;;;14.73;11.50;;;;;;;10.66;61.96;100570.97;5093053;28;20039;-70
2021/03/05 06:59:02;;;;;;;17.55;11.77;;;;;;;10.88;61.14;100569.59;5093633;28;20370;-69
2021/03/05 07:01:27;;;;;;;12.70;11.35;;;;;;;10.89;60.24;100565.63;5093293;28;20367;-69
2021/03/05 07:04:08;;;;;;;18.52;14.15;;;;;;;11.34;59.61;100564.44;5093456;28;20031;-70
2021/03/05 07:06:39;;;;;;;16.40;12.57;;;;;;;11.46;57.40;100569.94;5092964;28;20115;-69
2021/03/05 07:09:11;;;;;;;20.88;15.07;;;;;;;11.44;58.34;100569.47;5093265;28;20424;-71
2021/03/05 07:11:43;;;;;;;142.43;77.35;;;;;;;11.48;57.85;100564.81;5092867;28;20116;-69
2021/03/05 07:14:11;;;;;;;50.28;30.33;;;;;;;11.65;57.74;100562.81;5092857;28;20035;-69
2021/03/05 07:16:48;;;;;;;22.63;12.48;;;;;;;11.66;55.95;100570.81;5093067;28;20032;-69
2021/03/05 07:19:19;;;;;;;14.52;11.27;;;;;;;11.64;54.98;100577.94;5095650;28;20044;-70
2021/03/05 07:21:48;;;;;;;19.40;11.77;;;;;;;11.99;55.00;100567.66;5096001;28;20035;-69
2021/03/05 07:24:22;;;;;;;10.57;9.48;;;;;;;12.47;53.59;100573.13;5096440;28;20023;-69
2021/03/05 07:27:01;;;;;;;13.02;10.63;;;;;;;12.56;52.89;100568.91;5096028;28;20027;-70
2021/03/05 07:29:33;;;;;;;10.70;9.68;;;;;;;12.79;52.58;100576.56;5114834;28;20027;-70
2021/03/05 07:32:06;;;;;;;10.73;8.85;;;;;;;12.88;52.43;100573.53;5095660;28;20061;-69
2021/03/05 07:34:56;;;;;;;11.13;8.60;;;;;;;12.44;52.61;100580.22;5096029;28;20122;-70
2021/03/05 07:37:25;;;;;;;13.02;9.45;;;;;;;13.01;52.06;100584.19;5084817;28;20093;-69
2021/03/05 07:39:54;;;;;;;10.52;9.43;;;;;;;13.46;51.40;100585.41;5095878;28;20529;-69
2021/03/05 07:42:21;;;;;;;11.85;9.90;;;;;;;13.89;50.20;100578.53;5096199;28;20023;-70
2021/03/05 07:44:50;;;;;;;12.38;9.43;;;;;;;14.16;47.92;100589.75;5095818;28;20122;-69
2021/03/05 07:47:17;;;;;;;11.98;8.65;;;;;;;14.53;47.65;100586.28;5095772;28;20030;-70
2021/03/05 07:49:44;;;;;;;11.35;7.88;;;;;;;14.70;46.21;100582.94;5095854;28;20084;-69
2021/03/05 07:52:10;;;;;;;11.68;8.82;;;;;;;14.56;47.71;100588.34;5079143;28;20038;-70
2021/03/05 07:54:46;;;;;;;11.82;9.85;;;;;;;14.96;46.30;100584.81;5096206;28;20032;-69
2021/03/05 07:57:18;;;;;;;12.65;9.68;;;;;;;14.62;47.49;100592.41;5095944;28;20116;-69
2021/03/05 07:59:44;;;;;;;9.30;8.13;;;;;;;14.68;46.82;100586.09;5096514;28;20032;-69
2021/03/05 08:02:13;;;;;;;12.43;8.25;;;;;;;14.57;47.26;100579.53;5095606;28;20478;-69
2021/03/05 08:05:11;;;;;;;11.65;8.63;;;;;;;13.99;48.86;100588.28;5095606;28;20497;-69
2021/03/05 08:07:38;;;;;;;15.98;9.65;;;;;;;14.35;48.07;100572.03;5113897;28;20049;-69
2021/03/05 08:10:06;;;;;;;13.85;9.25;;;;;;;14.96;46.30;100578.41;5113940;28;20031;-70
2021/03/05 08:12:45;;;;;;;14.13;9.90;;;;;;;13.91;49.13;100583.78;5114097;28;20447;-69
2021/03/05 08:15:13;;;;;;;11.32;10.00;;;;;;;14.45;48.40;100568.56;5096766;28;20070;-70
2021/03/05 08:17:46;;;;;;;12.25;9.90;;;;;;;15.38;45.29;100562.03;5095610;28;20080;-70
2021/03/05 08:20:17;;;;;;;14.82;11.77;;;;;;;15.58;45.44;100571.03;5091963;28;20437;-69
2021/03/05 08:22:58;;;;;;;16.25;13.45;;;;;;;15.04;45.56;100564.09;5092768;28;20352;-69
2021/03/05 08:25:35;;;;;;;22.00;15.00;;;;;;;14.84;47.26;100565.47;5092134;28;20124;-70
2021/03/05 08:28:06;;;;;;;16.20;11.73;;;;;;;14.95;46.71;100558.00;5092187;28;20036;-69
2021/03/05 08:30:35;;;;;;;12.38;11.05;;;;;;;14.66;46.79;100554.88;5092183;28;20093;-70
2021/03/05 08:33:05;;;;;;;13.38;10.52;;;;;;;14.00;48.69;100550.72;5092811;28;20115;-69
2021/03/05 08:35:37;;;;;;;10.80;9.70;;;;;;;14.02;49.42;100561.56;5092673;28;20497;-70
2021/03/05 08:38:08;;;;;;;14.05;11.18;;;;;;;14.06;48.92;100552.03;5093001;28;20421;-70
2021/03/05 08:40:35;;;;;;;17.90;14.45;;;;;;;13.97;49.61;100561.88;5092151;28;20032;-69
2021/03/05 08:43:09;;;;;;;17.25;12.85;;;;;;;14.57;48.48;100550.75;5092094;28;20020;-69
2021/03/05 08:45:59;;;;;;;15.63;13.52;;;;;;;14.31;47.21;100487.19;5092016;28;20024;-69
2021/03/05 08:48:32;;;;;;;17.17;11.02;;;;;;;14.73;46.67;100556.13;5092917;28;20440;-69
2021/03/05 08:51:16;;;;;;;22.42;13.70;;;;;;;15.06;47.24;100553.31;5095098;28;20035;-69
2021/03/05 08:53:53;;;;;;;;;;;;;;;14.96;46.52;100553.19;5095857;28;20036;-70
2021/03/05 08:56:22;;;;;;;16.45;11.73;;;;;;;15.61;45.29;100542.22;5095464;28;19908;-69
2021/03/05 08:58:59;;;;;;;12.95;11.63;;;;;;;15.97;43.88;100548.91;5095361;28;20020;-69
2021/03/05 09:01:32;;;;;;;13.95;10.90;;;;;;;16.37;43.76;100549.16;5095317;28;20043;-69
2021/03/05 09:04:17;;;;;;;11.57;10.32;;;;;;;16.56;42.42;100546.00;5095217;28;20422;-70
2021/03/05 09:06:53;;;;;;;13.15;10.65;;;;;;;16.72;42.93;100551.31;5095382;28;20024;-69
2021/03/05 09:09:26;;;;;;;13.52;11.07;;;;;;;16.33;43.64;100543.50;5094927;28;20466;-69
2021/03/05 09:12:14;;;;;;;11.68;10.07;;;;;;;16.95;42.11;100545.41;5095804;28;20145;-69
2021/03/05 09:14:56;;;;;;;14.10;10.55;;;;;;;15.69;45.48;100543.91;5079298;28;20028;-69
2021/03/05 09:17:22;;;;;;;12.10;10.85;;;;;;;16.38;43.99;100547.94;5095040;28;20039;-69
2021/03/05 09:19:48;;;;;;;15.02;10.00;;;;;;;15.92;46.19;100545.66;5094887;28;20056;-70
2021/03/05 09:22:19;;;;;;;11.75;9.95;;;;;;;15.54;46.76;100547.75;5094883;28;20462;-69
2021/03/05 09:24:58;;;;;;;11.93;10.50;;;;;;;16.34;45.46;100549.91;5094760;28;20067;-69
2021/03/05 09:27:43;;;;;;;15.57;10.38;;;;;;;15.41;46.85;100549.25;5094375;28;20020;-69
2021/03/05 09:30:20;;;;;;;10.68;9.57;;;;;;;15.45;47.23;100547.28;5094178;28;20048;-69
2021/03/05 09:33:04;;;;;;;13.68;10.77;;;;;;;15.00;48.54;100551.25;5094651;28;20085;-69
2021/03/05 09:35:31;;;;;;;12.25;10.23;;;;;;;15.07;48.65;100552.09;5094804;28;20036;-70
2021/03/05 09:37:57;;;;;;;12.65;9.07;;;;;;;15.18;48.92;100555.84;5094603;28;20028;-69
2021/03/05 09:40:25;;;;;;;8.40;7.55;;;;;;;14.70;50.23;100548.50;5094637;28;20028;-70
2021/03/05 09:42:53;;;;;;;11.98;8.77;;;;;;;14.81;49.81;100543.84;5095078;28;20039;-70
2021/03/05 09:45:37;;;;;;;9.02;8.00;;;;;;;14.78;50.24;100550.19;5094637;28;20401;-70
2021/03/05 09:48:03;;;;;;;;;;;;;;;14.37;51.46;100552.84;5094827;28;20020;-70
2021/03/05 09:50:29;;;;;;;7.65;6.85;;;;;;;14.44;51.73;100541.75;5094266;28;19908;-70
2021/03/05 09:52:54;;;;;;;7.53;5.45;;;;;;;14.15;52.83;100544.16;5094275;28;20036;-70
2021/03/05 09:55:24;;;;;;;7.38;6.05;;;;;;;14.38;52.54;100535.69;5094631;28;20085;-70
2021/03/05 09:57:51;;;;;;;7.53;5.95;;;;;;;15.20;49.79;100536.63;5094251;28;20032;-70
2021/03/05 10:00:31;;;;;;;7.40;6.10;;;;;;;16.08;47.42;100526.50;5094105;28;20356;-70
2021/03/05 10:03:13;;;;;;;9.05;6.32;;;;;;;16.14;47.49;100536.19;5094575;28;20052;-73
2021/03/05 10:05:41;;;;;;;7.28;5.65;;;;;;;16.09;47.92;100522.53;5093823;28;20055;-71
2021/03/05 10:08:13;;;;;;;8.13;6.28;;;;;;;15.78;48.22;100515.53;5094377;28;20039;-72
2021/03/05 10:10:54;;;;;;;7.47;6.18;;;;;;;15.30;49.32;100517.50;5093974;28;20028;-70
2021/03/05 10:13:37;;;;;;;7.55;6.35;;;;;;;15.44;48.71;100517.63;5093913;28;20064;-71
2021/03/05 10:16:30;;;;;;;7.30;6.60;;;;;;;15.77;47.80;100511.09;5093841;28;20073;-70
2021/03/05 10:19:06;;;;;;;6.70;5.85;;;;;;;15.43;49.03;100518.81;5095067;28;20463;-70
2021/03/05 10:21:34;;;;;;;6.72;5.32;;;;;;;15.89;47.65;100512.78;5081287;28;20035;-69
2021/03/05 10:24:07;;;;;;;6.50;5.60;;;;;;;15.85;47.29;100500.72;5097868;28;20507;-75
2021/03/05 10:26:33;;;;;;;6.70;5.88;;;;;;;15.73;47.36;100512.28;5098723;28;20042;-76
2021/03/05 10:29:01;;;;;;;7.15;5.07;;;;;;;15.31;48.48;100505.09;5099205;28;20051;-74
2021/03/05 10:31:39;;;;;;;7.15;6.00;;;;;;;15.11;48.62;100508.13;5099181;28;20028;-77
2021/03/05 10:34:04;;;;;;;7.13;5.43;;;;;;;14.99;48.90;100500.00;5101507;28;20044;-75
2021/03/05 10:36:33;;;;;;;7.97;6.25;;;;;;;14.84;49.20;100509.44;5100287;28;20461;-78
2021/03/05 10:38:58;;;;;;;8.40;5.60;;;;;;;15.06;48.90;100511.28;5100240;28;20046;-75
2021/03/05 10:41:24;;;;;;;6.68;6.07;;;;;;;15.13;49.20;100500.16;5101716;28;20028;-78
2021/03/05 10:43:52;;;;;;;7.35;6.03;;;;;;;15.16;48.87;100509.75;5100040;28;20027;-76
2021/03/05 10:46:18;;;;;;;7.30;5.35;;;;;;;15.53;46.94;100511.69;5098714;28;20045;-74
2021/03/05 10:48:44;;;;;;;5.68;5.05;;;;;;;15.68;46.90;100513.44;5099070;28;20156;-76
2021/03/05 10:51:09;;;;;;;8.18;5.75;;;;;;;15.90;46.28;100505.97;5099247;28;20059;-78
2021/03/05 10:53:35;;;;;;;6.15;5.00;;;;;;;15.79;46.44;100502.28;5098517;28;20030;-76
2021/03/05 10:56:03;;;;;;;6.43;5.40;;;;;;;15.94;46.51;100504.00;5098394;28;20024;-78
2021/03/05 10:58:31;;;;;;;7.78;5.18;;;;;;;16.06;45.92;100506.47;5097460;28;20065;-73
2021/03/05 11:00:57;;;;;;;9.68;5.75;;;;;;;15.69;46.46;100507.44;5098845;28;20032;-78
2021/03/05 11:03:23;;;;;;;8.35;5.03;;;;;;;15.54;46.30;100494.47;5098177;28;20527;-69
2021/03/05 11:05:51;;;;;;;8.15;5.30;;;;;;;16.32;44.77;100493.38;5096320;28;20077;-69
2021/03/05 11:08:19;;;;;;;5.90;5.30;;;;;;;15.77;46.77;100499.88;5096237;28;20027;-70
2021/03/05 11:10:51;;;;;;;11.43;5.60;;;;;;;15.92;45.78;100484.72;5096387;28;20036;-69
2021/03/05 11:13:19;;;;;;;5.78;5.22;;;;;;;16.47;45.11;100486.63;5095380;28;20109;-69
2021/03/05 11:15:48;;;;;;;9.85;5.68;;;;;;;16.98;43.46;100479.94;5096033;28;20107;-69
2021/03/05 11:18:13;;;;;;;7.32;5.68;;;;;;;17.03;42.52;100473.91;5096481;28;20036;-69
2021/03/05 11:20:39;;;;;;;6.55;5.20;;;;;;;16.93;42.00;100480.31;5095623;28;20178;-69
2021/03/05 11:23:07;;;;;;;5.13;4.43;;;;;;;17.18;42.57;100472.72;5095776;28;20059;-69
2021/03/05 11:25:32;;;;;;;5.15;4.50;;;;;;;17.13;41.90;100473.13;5095912;28;20107;-69
2021/03/05 11:28:00;;;;;;;8.05;5.68;;;;;;;17.11;42.34;100475.53;5095840;28;20062;-69
2021/03/05 11:30:26;;;;;;;5.30;4.57;;;;;;;16.72;43.33;100473.47;5095586;28;20020;-70